St John, Virgin Islands
Current Conditions -  °F | °C
As of 11:00 AM on Monday 24 Nov 2014 (Local Time) from TUPJ Reporting Station
Scattered Clouds Scattered Clouds  
Wind Chill: 29°   Ceiling: Unl
Heat Index: 34°   Visibility: 6mi
Dew Point: 24°   Wind: 15mph
Humidity: 74%   Direction: 90°E
Pressure: 30.06"   Gusts: NA
Location:  18.3333°N, 64.7943°W
Report Text: TUPJ 241500Z 09013KT 9999 SCT019 29/24 Q1018 RMK A3007
Loading
Personal Weather Stations






























Interactive Weather Map New forecast layout! Learn more

10-Day Weather Forecast

Advertisements
Track Severe Weather on mobile